Hancock, Wisconsin
Current Conditions -  °F | °C
As of 2:56 PM on Tuesday 21 Oct 2014 (Local Time) from KY50 Reporting Station
Overcast Overcast  
Wind Chill: 51°   Ceiling: 100
Heat Index: 51°   Visibility: 10mi
Dew Point: 36°   Wind: 0mph
Humidity: 57%   Direction: NA
Pressure: 30.23"   Gusts: NA
Location:  44.13°N, 89.52°W
Report Text: KY50 211956Z AUTO 00000KT 10SM OVC001 11/02 A3023 RMK AO2 TSNO T01050022 SLP238
Loading
Personal Weather Stations






























Interactive Weather Map
Tropical Storm Tracking
New forecast layout! Learn more

10-Day Weather Forecast

Advertisements
Track Severe Weather on mobile